Time;durP1;ratioP1;P1;durP2;ratioP2;P2;SDS_P1;SDS_P2;PMS_P1;PMS_P2;Temp;Humidity;BMP_temperature;BMP_pressure;BME280_temperature;BME280_humidity;BME280_pressure;Samples;Min_cycle;Max_cycle;Signal;HPM_P1;HPM_P2
2023/12/07 00:02:04;;;;;;;173.05;67.45;;;2.50;99.90;;;;;;4949850;28;20077;-76
2023/12/07 00:04:31;;;;;;;174.05;65.60;;;2.50;99.90;;;;;;4936304;28;20042;-76
2023/12/07 00:06:58;;;;;;;195.88;70.70;;;2.50;99.90;;;;;;4948612;28;20053;-77
2023/12/07 00:09:24;;;;;;;222.63;77.55;;;2.60;99.90;;;;;;4942633;28;20164;-76
2023/12/07 00:11:51;;;;;;;239.88;78.15;;;2.60;99.90;;;;;;4950732;28;20050;-76
2023/12/07 00:14:18;;;;;;;187.65;68.68;;;2.60;99.90;;;;;;4948252;28;20046;-77
2023/12/07 00:16:45;;;;;;;159.38;64.60;;;2.50;99.90;;;;;;4954004;28;20046;-76
2023/12/07 00:19:11;;;;;;;165.32;64.10;;;2.60;99.90;;;;;;4934949;28;20042;-77
2023/12/07 00:21:38;;;;;;;155.95;64.20;;;2.60;99.90;;;;;;4954917;28;20138;-77
2023/12/07 00:24:05;;;;;;;164.60;65.63;;;2.60;99.90;;;;;;4951723;28;20057;-75
2023/12/07 00:26:32;;;;;;;155.48;61.97;;;2.60;99.90;;;;;;4946308;28;20092;-76
2023/12/07 00:28:59;;;;;;;154.45;63.88;;;2.50;99.90;;;;;;4954210;28;20764;-76
2023/12/07 00:31:26;;;;;;;185.93;69.18;;;2.50;99.90;;;;;;4951088;28;20593;-76
2023/12/07 00:33:53;;;;;;;171.48;64.78;;;2.50;99.90;;;;;;4956802;28;20038;-77
2023/12/07 00:36:20;;;;;;;172.13;64.38;;;2.50;99.90;;;;;;4944203;28;20039;-75
2023/12/07 00:38:47;;;;;;;190.23;67.53;;;2.60;99.90;;;;;;4953245;28;20031;-77
2023/12/07 00:41:13;;;;;;;178.23;65.22;;;2.60;99.90;;;;;;4948319;28;20042;-76
2023/12/07 00:43:40;;;;;;;194.10;69.95;;;2.60;99.90;;;;;;4953700;28;20046;-76
2023/12/07 00:46:08;;;;;;;178.05;67.18;;;2.50;99.90;;;;;;4950816;28;20038;-76
2023/12/07 00:48:35;;;;;;;172.80;63.00;;;2.50;99.90;;;;;;4962386;28;20053;-77
2023/12/07 00:51:02;;;;;;;179.77;67.63;;;2.50;99.90;;;;;;4951685;28;20468;-76
2023/12/07 00:53:29;;;;;;;195.10;71.10;;;2.50;99.90;;;;;;4953032;28;20188;-76
2023/12/07 00:55:56;;;;;;;204.57;74.18;;;2.50;99.90;;;;;;4944193;28;20043;-77
2023/12/07 00:58:23;;;;;;;187.38;70.90;;;2.50;99.90;;;;;;4950391;28;20140;-77
2023/12/07 01:00:51;;;;;;;236.50;76.78;;;2.50;99.90;;;;;;4957175;28;20042;-76
2023/12/07 01:03:18;;;;;;;209.85;71.47;;;2.50;99.90;;;;;;4956691;28;20118;-76
2023/12/07 01:05:45;;;;;;;212.10;71.13;;;2.40;99.90;;;;;;4957492;28;20132;-78
2023/12/07 01:08:13;;;;;;;242.43;80.20;;;2.50;99.90;;;;;;4961130;28;20043;-77
2023/12/07 01:10:40;;;;;;;263.63;87.68;;;2.50;99.90;;;;;;4938448;28;20861;-76
2023/12/07 01:13:06;;;;;;;266.00;84.15;;;2.50;99.90;;;;;;4954676;28;20130;-77
2023/12/07 01:15:34;;;;;;;253.57;81.63;;;2.50;99.90;;;;;;4973495;28;21114;-77
2023/12/07 01:18:00;;;;;;;290.73;83.93;;;2.50;99.90;;;;;;4963025;28;20362;-76
2023/12/07 01:20:27;;;;;;;278.60;86.22;;;2.50;99.90;;;;;;4967149;28;20035;-77
2023/12/07 01:22:54;;;;;;;268.08;85.70;;;2.50;99.90;;;;;;4961271;28;20050;-77
2023/12/07 01:25:21;;;;;;;278.73;86.32;;;2.50;99.90;;;;;;4953920;28;20083;-76
2023/12/07 01:27:49;;;;;;;290.70;85.55;;;2.60;99.90;;;;;;4959391;28;20046;-76
2023/12/07 01:30:16;;;;;;;315.88;90.88;;;2.50;99.90;;;;;;4939710;28;20038;-75
2023/12/07 01:32:44;;;;;;;362.58;99.35;;;2.50;99.90;;;;;;4947294;28;20129;-76
2023/12/07 01:35:11;;;;;;;392.50;101.85;;;2.50;99.90;;;;;;4960313;28;20814;-76
2023/12/07 01:37:38;;;;;;;454.67;107.22;;;2.50;99.90;;;;;;4972152;28;20497;-77
2023/12/07 01:40:09;;;;;;;403.58;101.88;;;2.50;99.90;;;;;;4977813;28;20123;-76
2023/12/07 01:42:37;;;;;;;405.40;101.10;;;2.50;99.90;;;;;;4959399;28;21125;-78
2023/12/07 01:45:05;;;;;;;389.08;96.50;;;2.50;99.90;;;;;;4946005;28;20042;-76
2023/12/07 01:47:34;;;;;;;452.80;104.47;;;2.50;99.90;;;;;;4937472;28;20054;-77
2023/12/07 01:50:04;;;;;;;397.52;99.00;;;2.50;99.90;;;;;;4971087;28;20130;-76
2023/12/07 01:52:31;;;;;;;392.17;99.68;;;2.60;99.90;;;;;;4943067;28;20585;-77
2023/12/07 01:54:58;;;;;;;343.92;92.72;;;2.60;99.90;;;;;;4960455;28;20050;-76
2023/12/07 01:57:25;;;;;;;259.45;79.45;;;2.50;99.90;;;;;;4972278;28;20062;-76
2023/12/07 01:59:52;;;;;;;298.77;88.47;;;2.50;99.90;;;;;;4958328;28;20043;-76
2023/12/07 02:02:19;;;;;;;252.63;82.45;;;2.50;99.90;;;;;;4950954;28;20154;-77
2023/12/07 02:04:45;;;;;;;202.85;67.68;;;2.50;99.90;;;;;;4958669;28;20057;-76
2023/12/07 02:07:13;;;;;;;210.63;71.15;;;2.40;99.90;;;;;;4938437;28;20045;-77
2023/12/07 02:09:40;;;;;;;201.73;73.90;;;2.50;99.90;;;;;;4954629;28;20058;-75
2023/12/07 02:12:07;;;;;;;204.07;72.10;;;2.50;99.90;;;;;;4970196;28;20045;-76
2023/12/07 02:14:34;;;;;;;200.75;72.25;;;2.50;99.90;;;;;;4936393;28;20490;-77
2023/12/07 02:17:09;;;;;;;193.25;69.90;;;2.40;99.90;;;;;;4957010;28;20097;-75
2023/12/07 02:19:39;;;;;;;;;;;2.50;99.90;;;;;;4954204;28;20038;-77
2023/12/07 02:22:21;;;;;;;165.13;60.17;;;2.50;99.90;;;;;;4952516;28;20024;-76
2023/12/07 02:25:10;;;;;;;170.05;65.30;;;2.40;99.90;;;;;;4939163;28;20487;-76
2023/12/07 02:27:45;;;;;;;153.00;63.08;;;2.30;99.90;;;;;;4955075;28;20076;-75
2023/12/07 02:30:12;;;;;;;;;;;2.30;99.90;;;;;;4975284;28;20057;-76
2023/12/07 02:32:42;;;;;;;177.10;66.63;;;2.30;99.90;;;;;;4967328;28;19936;-76
2023/12/07 02:35:12;;;;;;;176.40;65.97;;;2.40;99.90;;;;;;4967061;28;20074;-76
2023/12/07 02:37:48;;;;;;;158.55;61.47;;;2.40;99.90;;;;;;4936921;28;20141;-77
2023/12/07 02:40:21;;;;;;;151.63;61.38;;;2.40;99.90;;;;;;4974435;28;20057;-77
2023/12/07 02:42:49;;;;;;;156.63;63.60;;;2.40;99.90;;;;;;4942409;28;20129;-76
2023/12/07 02:45:16;;;;;;;159.43;63.00;;;2.40;99.90;;;;;;4937591;28;20056;-76
2023/12/07 02:47:45;;;;;;;143.13;61.88;;;2.30;99.90;;;;;;4934197;28;20124;-76
2023/12/07 02:50:13;;;;;;;135.43;57.20;;;2.30;99.90;;;;;;4946742;28;20046;-77
2023/12/07 02:52:40;;;;;;;156.98;61.10;;;2.30;99.90;;;;;;4932851;28;20080;-76
2023/12/07 02:55:08;;;;;;;149.43;61.08;;;2.30;99.90;;;;;;4954665;28;20029;-75
2023/12/07 02:57:35;;;;;;;154.30;60.55;;;2.30;99.90;;;;;;4956009;28;20043;-77
2023/12/07 03:00:07;;;;;;;161.30;63.88;;;2.40;99.90;;;;;;4956559;28;20050;-76
2023/12/07 03:02:35;;;;;;;157.10;63.33;;;2.40;99.90;;;;;;4970433;28;20157;-77
2023/12/07 03:05:03;;;;;;;149.30;61.65;;;2.30;99.90;;;;;;4958963;28;20057;-75
2023/12/07 03:07:30;;;;;;;137.65;59.03;;;2.40;99.90;;;;;;4970670;28;20116;-76
2023/12/07 03:09:57;;;;;;;147.52;61.20;;;2.40;99.90;;;;;;4956972;28;20043;-76
2023/12/07 03:12:24;;;;;;;156.30;62.75;;;2.40;99.90;;;;;;4942937;28;20074;-75
2023/12/07 03:14:51;;;;;;;164.93;65.70;;;2.40;99.90;;;;;;4935500;28;20074;-75
2023/12/07 03:17:18;;;;;;;162.35;65.10;;;2.40;99.90;;;;;;4947199;28;20132;-76
2023/12/07 03:19:46;;;;;;;168.60;67.63;;;2.40;99.90;;;;;;4939610;28;20055;-77
2023/12/07 03:22:13;;;;;;;166.20;67.75;;;2.40;99.90;;;;;;4959342;28;20501;-76
2023/12/07 03:24:45;;;;;;;170.80;67.32;;;2.50;99.90;;;;;;4938774;28;20135;-77
2023/12/07 03:27:12;;;;;;;174.50;68.43;;;2.40;99.90;;;;;;4969607;28;20042;-77
2023/12/07 03:29:39;;;;;;;178.65;69.90;;;2.30;99.90;;;;;;4969779;28;20576;-76
2023/12/07 03:32:06;;;;;;;184.07;68.88;;;2.40;99.90;;;;;;4955331;28;20038;-76
2023/12/07 03:34:33;;;;;;;179.57;65.30;;;2.40;99.90;;;;;;4971218;28;20102;-77
2023/12/07 03:36:59;;;;;;;192.73;71.22;;;2.40;99.90;;;;;;4975309;28;20119;-76
2023/12/07 03:39:26;;;;;;;192.70;68.47;;;2.40;99.90;;;;;;4950440;28;20054;-76
2023/12/07 03:41:53;;;;;;;198.90;73.03;;;2.50;99.90;;;;;;4950942;28;20065;-75
2023/12/07 03:44:20;;;;;;;206.93;72.70;;;2.40;99.90;;;;;;4955012;28;20069;-76
2023/12/07 03:46:47;;;;;;;205.63;76.07;;;2.40;99.90;;;;;;4953046;28;20448;-76
2023/12/07 03:49:15;;;;;;;248.98;81.72;;;2.40;99.90;;;;;;4962426;28;20057;-76
2023/12/07 03:51:42;;;;;;;246.40;81.40;;;2.40;99.90;;;;;;4955828;28;20038;-76
2023/12/07 03:54:09;;;;;;;256.70;83.65;;;2.50;99.90;;;;;;4959850;28;20710;-77
2023/12/07 03:56:36;;;;;;;231.73;83.80;;;2.50;99.90;;;;;;4952197;28;20516;-76
2023/12/07 03:59:03;;;;;;;245.68;82.47;;;2.40;99.90;;;;;;4976762;28;20069;-76
2023/12/07 04:01:30;;;;;;;224.45;79.78;;;2.50;99.90;;;;;;4952148;28;20058;-76
2023/12/07 04:03:57;;;;;;;214.43;77.45;;;2.50;99.90;;;;;;4956800;28;20064;-75
2023/12/07 04:06:25;;;;;;;214.85;79.57;;;2.40;99.90;;;;;;4944364;28;20582;-75
2023/12/07 04:08:52;;;;;;;218.18;78.78;;;2.40;99.90;;;;;;4973491;28;20133;-75
2023/12/07 04:11:19;;;;;;;220.63;76.75;;;2.40;99.90;;;;;;4967769;28;20094;-76
2023/12/07 04:13:46;;;;;;;204.05;76.32;;;2.40;99.90;;;;;;4968870;28;20042;-76
2023/12/07 04:16:13;;;;;;;216.70;75.63;;;2.40;99.90;;;;;;4943841;28;20044;-76
2023/12/07 04:18:40;;;;;;;221.63;75.03;;;2.40;99.90;;;;;;4938143;28;20041;-76
2023/12/07 04:21:06;;;;;;;236.45;81.15;;;2.50;99.90;;;;;;4976835;28;20133;-76
2023/12/07 04:23:33;;;;;;;225.43;82.22;;;2.50;99.90;;;;;;4971641;28;20085;-76
2023/12/07 04:26:00;;;;;;;216.60;78.60;;;2.50;99.90;;;;;;4944641;28;20692;-77
2023/12/07 04:28:39;;;;;;;216.60;80.65;;;2.50;99.90;;;;;;4942153;28;20055;-76
2023/12/07 04:31:06;;;;;;;221.13;79.43;;;2.60;99.90;;;;;;4954844;28;20129;-76
2023/12/07 04:33:33;;;;;;;220.65;81.72;;;2.70;99.90;;;;;;4968965;28;20043;-76
2023/12/07 04:35:59;;;;;;;206.52;77.82;;;2.70;99.90;;;;;;4971217;28;20523;-76
2023/12/07 04:38:26;;;;;;;214.63;80.90;;;2.70;99.90;;;;;;4938848;28;20528;-77
2023/12/07 04:40:53;;;;;;;231.52;82.07;;;2.70;99.90;;;;;;4969514;28;20463;-75
2023/12/07 04:43:20;;;;;;;225.70;81.60;;;2.70;99.90;;;;;;4939926;28;20054;-76
2023/12/07 04:45:47;;;;;;;206.30;76.22;;;2.80;99.90;;;;;;4952982;28;20634;-76
2023/12/07 04:48:14;;;;;;;187.00;72.18;;;2.60;99.90;;;;;;4945484;28;20069;-75
2023/12/07 04:50:43;;;;;;;206.75;78.70;;;2.60;99.90;;;;;;4935063;28;20063;-75
2023/12/07 04:53:10;;;;;;;197.80;76.53;;;2.70;99.90;;;;;;4953341;28;20101;-75
2023/12/07 04:55:37;;;;;;;220.43;79.47;;;2.60;99.90;;;;;;4948657;28;20043;-76
2023/12/07 04:58:03;;;;;;;238.73;81.88;;;2.60;99.90;;;;;;4954829;28;20117;-75
2023/12/07 05:00:30;;;;;;;230.07;81.10;;;2.70;99.90;;;;;;4953036;28;20046;-75
2023/12/07 05:02:57;;;;;;;214.13;76.78;;;2.70;99.90;;;;;;4969294;28;20058;-76
2023/12/07 05:05:24;;;;;;;219.63;79.20;;;2.70;99.90;;;;;;4957920;28;20058;-75
2023/12/07 05:07:51;;;;;;;215.85;80.32;;;2.70;99.90;;;;;;4960407;28;20073;-77
2023/12/07 05:10:18;;;;;;;246.90;82.65;;;2.70;99.90;;;;;;4970303;28;20049;-76
2023/12/07 05:12:45;;;;;;;223.32;82.45;;;2.70;99.90;;;;;;4967352;28;20042;-77
2023/12/07 05:15:12;;;;;;;218.90;81.32;;;2.70;99.90;;;;;;4963667;28;20726;-77
2023/12/07 05:17:39;;;;;;;213.63;82.03;;;2.80;99.90;;;;;;4943712;28;20049;-76
2023/12/07 05:20:07;;;;;;;193.57;79.22;;;2.80;99.90;;;;;;4976263;28;20643;-77
2023/12/07 05:22:33;;;;;;;208.15;79.60;;;2.70;99.90;;;;;;4959351;28;20144;-77
2023/12/07 05:25:00;;;;;;;209.65;83.13;;;2.70;99.90;;;;;;4946649;28;20497;-77
2023/12/07 05:27:27;;;;;;;214.73;85.13;;;2.80;99.90;;;;;;4960009;28;20184;-76
2023/12/07 05:29:56;;;;;;;228.60;88.97;;;2.80;99.90;;;;;;4956599;28;20046;-76
2023/12/07 05:32:23;;;;;;;224.75;84.13;;;2.70;99.90;;;;;;4946662;28;20050;-77
2023/12/07 05:34:50;;;;;;;224.85;81.47;;;2.70;99.90;;;;;;4960732;28;20073;-77
2023/12/07 05:37:17;;;;;;;215.38;84.38;;;2.70;99.90;;;;;;4957705;28;20046;-76
2023/12/07 05:39:44;;;;;;;245.07;84.05;;;2.90;99.90;;;;;;4940414;28;20035;-77
2023/12/07 05:42:11;;;;;;;225.73;85.45;;;2.80;99.90;;;;;;4961223;28;20677;-76
2023/12/07 05:44:38;;;;;;;216.90;84.50;;;2.80;99.90;;;;;;4940996;28;20047;-77
2023/12/07 05:47:05;;;;;;;219.70;82.70;;;2.70;99.90;;;;;;4980891;28;20046;-76
2023/12/07 05:49:32;;;;;;;219.55;83.38;;;2.80;99.90;;;;;;4965025;28;20141;-75
2023/12/07 05:51:59;;;;;;;212.00;78.07;;;2.80;99.90;;;;;;4986445;28;20097;-76
2023/12/07 05:54:26;;;;;;;214.35;82.20;;;2.80;99.90;;;;;;4952655;28;20037;-76
2023/12/07 05:56:52;;;;;;;210.95;81.03;;;2.80;99.90;;;;;;4955260;28;20045;-75
2023/12/07 05:59:19;;;;;;;219.30;83.20;;;2.70;99.90;;;;;;4949728;28;20048;-75
2023/12/07 06:01:46;;;;;;;225.27;82.80;;;2.70;99.90;;;;;;4938364;28;20047;-76
2023/12/07 06:04:13;;;;;;;208.77;78.55;;;2.70;99.90;;;;;;4956501;28;20120;-76
2023/12/07 06:06:40;;;;;;;212.63;78.97;;;2.70;99.90;;;;;;4942439;28;20113;-75
2023/12/07 06:09:07;;;;;;;220.32;80.20;;;2.70;99.90;;;;;;4965007;28;20058;-75
2023/12/07 06:11:35;;;;;;;237.05;80.65;;;2.60;99.90;;;;;;4952852;28;20046;-76
2023/12/07 06:14:02;;;;;;;217.32;81.30;;;2.60;99.90;;;;;;4974512;28;20092;-76
2023/12/07 06:16:29;;;;;;;232.57;82.85;;;2.60;99.90;;;;;;4941073;28;20519;-76
2023/12/07 06:18:56;;;;;;;223.75;80.43;;;2.60;99.90;;;;;;4957183;28;20041;-76
2023/12/07 06:21:25;;;;;;;230.90;81.82;;;2.50;99.90;;;;;;4959267;28;20035;-77
2023/12/07 06:23:52;;;;;;;238.25;84.25;;;2.60;99.90;;;;;;4975276;28;20438;-74
2023/12/07 06:26:19;;;;;;;264.67;98.15;;;2.60;99.90;;;;;;4939773;28;20062;-74
2023/12/07 06:28:46;;;;;;;240.27;86.75;;;2.60;99.90;;;;;;4937231;28;20787;-78
2023/12/07 06:31:15;;;;;;;313.10;125.10;;;2.50;99.90;;;;;;4966993;28;20045;-77
2023/12/07 06:33:42;;;;;;;252.60;87.82;;;2.50;99.90;;;;;;4945766;28;20133;-77
2023/12/07 06:36:10;;;;;;;230.40;81.07;;;2.50;99.90;;;;;;4974689;28;20043;-76
2023/12/07 06:38:38;;;;;;;224.98;78.95;;;2.40;99.90;;;;;;4934117;28;20039;-76
2023/12/07 06:41:05;;;;;;;239.70;79.05;;;2.40;99.90;;;;;;4976524;28;20046;-76
2023/12/07 06:43:32;;;;;;;243.50;81.88;;;2.50;99.90;;;;;;4959010;28;20054;-74
2023/12/07 06:45:59;;;;;;;243.77;83.88;;;2.40;99.90;;;;;;4958450;28;20043;-75
2023/12/07 06:48:26;;;;;;;255.18;86.60;;;2.50;99.90;;;;;;4937250;28;20481;-75
2023/12/07 06:50:53;;;;;;;242.55;82.97;;;2.50;99.90;;;;;;4951135;28;20129;-75
2023/12/07 06:53:20;;;;;;;234.23;80.47;;;2.40;99.90;;;;;;4960619;28;20042;-75
2023/12/07 06:55:46;;;;;;;256.35;90.35;;;2.40;99.90;;;;;;4950736;28;20038;-75
2023/12/07 06:58:13;;;;;;;245.52;86.22;;;2.40;99.90;;;;;;4943158;28;20497;-78
2023/12/07 07:00:40;;;;;;;280.63;88.97;;;2.40;99.90;;;;;;4954846;28;20049;-75
2023/12/07 07:03:07;;;;;;;245.23;86.18;;;2.50;99.90;;;;;;4954505;28;20058;-76
2023/12/07 07:05:34;;;;;;;243.68;82.82;;;2.50;99.90;;;;;;4952952;28;20113;-74
2023/12/07 07:08:01;;;;;;;224.10;80.90;;;2.50;99.90;;;;;;4936882;28;20962;-74
2023/12/07 07:10:27;;;;;;;227.60;82.65;;;2.50;99.90;;;;;;4939267;28;20054;-75
2023/12/07 07:12:54;;;;;;;242.20;83.93;;;2.30;99.90;;;;;;4949277;28;20094;-75
2023/12/07 07:15:23;;;;;;;254.38;84.68;;;2.30;99.90;;;;;;4949187;28;20417;-74
2023/12/07 07:17:49;;;;;;;255.13;83.45;;;2.30;99.90;;;;;;4947791;28;20050;-75
2023/12/07 07:20:17;;;;;;;242.35;77.15;;;2.40;99.90;;;;;;4950983;28;20054;-74
2023/12/07 07:22:45;;;;;;;244.45;80.93;;;2.40;99.90;;;;;;4946952;28;20144;-74
2023/12/07 07:25:11;;;;;;;244.07;79.32;;;2.30;99.90;;;;;;4960642;28;20046;-74
2023/12/07 07:27:39;;;;;;;226.68;74.63;;;2.40;99.90;;;;;;4949120;28;20616;-74
2023/12/07 07:30:06;;;;;;;232.55;75.50;;;2.40;99.90;;;;;;4950716;28;20053;-75
2023/12/07 07:32:33;;;;;;;219.77;75.43;;;2.40;99.90;;;;;;4956080;28;20393;-75
2023/12/07 07:35:00;;;;;;;231.27;75.93;;;2.40;99.90;;;;;;4941705;28;20433;-74
2023/12/07 07:37:27;;;;;;;244.48;77.43;;;2.50;99.90;;;;;;4976257;28;20049;-73
2023/12/07 07:39:54;;;;;;;241.00;80.40;;;2.50;99.90;;;;;;4953516;28;20085;-75
2023/12/07 07:42:21;;;;;;;229.70;77.30;;;2.60;99.90;;;;;;4956944;28;20054;-74
2023/12/07 07:44:48;;;;;;;257.85;86.05;;;2.50;99.90;;;;;;4936724;28;20116;-74
2023/12/07 07:47:15;;;;;;;248.48;86.55;;;2.60;99.90;;;;;;4957390;28;20042;-74
2023/12/07 07:49:41;;;;;;;253.35;84.78;;;2.60;99.90;;;;;;4964806;28;20053;-74
2023/12/07 07:52:08;;;;;;;223.60;79.70;;;2.60;99.90;;;;;;4953552;28;20097;-75
2023/12/07 07:54:36;;;;;;;233.60;84.88;;;2.60;99.90;;;;;;4950209;28;20070;-75
2023/12/07 07:57:04;;;;;;;235.18;79.95;;;2.50;99.90;;;;;;4955338;28;20186;-74
2023/12/07 07:59:31;;;;;;;242.02;78.10;;;2.50;99.90;;;;;;4977933;28;20055;-74
2023/12/07 08:01:58;;;;;;;190.88;71.07;;;2.50;99.90;;;;;;4953692;28;20058;-75
2023/12/07 08:04:25;;;;;;;215.85;74.25;;;2.50;99.90;;;;;;4940450;28;20054;-75
2023/12/07 08:06:52;;;;;;;202.02;73.13;;;2.50;99.90;;;;;;4946282;28;20143;-73
2023/12/07 08:09:18;;;;;;;206.45;73.80;;;2.50;99.90;;;;;;4951115;28;20062;-76
2023/12/07 08:11:45;;;;;;;230.77;85.50;;;2.50;99.90;;;;;;4945571;28;20042;-75
2023/12/07 08:14:13;;;;;;;210.82;84.53;;;2.60;99.90;;;;;;4956952;28;20130;-74
2023/12/07 08:16:46;;;;;;;220.75;91.20;;;2.70;99.90;;;;;;4935893;28;20587;-74
2023/12/07 08:19:13;;;;;;;230.48;88.38;;;2.70;99.90;;;;;;4972166;28;20715;-75
2023/12/07 08:21:40;;;;;;;223.55;83.88;;;2.70;99.90;;;;;;4967012;28;20238;-73
2023/12/07 08:24:08;;;;;;;217.68;87.07;;;2.70;99.90;;;;;;4953632;28;20046;-74
2023/12/07 08:26:35;;;;;;;183.82;81.32;;;2.70;99.90;;;;;;4944920;28;20637;-74
2023/12/07 08:29:02;;;;;;;195.35;79.32;;;2.70;99.90;;;;;;4932341;28;20057;-74
2023/12/07 08:31:31;;;;;;;192.80;79.45;;;2.70;99.90;;;;;;4968054;28;20077;-75
2023/12/07 08:33:58;;;;;;;186.48;79.18;;;2.70;99.90;;;;;;4948861;28;20231;-75
2023/12/07 08:36:25;;;;;;;200.85;82.80;;;2.70;99.90;;;;;;4958076;28;20042;-75
2023/12/07 08:38:52;;;;;;;180.40;80.10;;;2.80;99.90;;;;;;4955227;28;20061;-74
2023/12/07 08:41:19;;;;;;;167.73;77.93;;;2.80;99.90;;;;;;4970240;28;20039;-75
2023/12/07 08:43:45;;;;;;;187.65;77.82;;;2.90;99.90;;;;;;4935483;28;20050;-74
2023/12/07 08:46:13;;;;;;;171.77;79.63;;;2.80;99.90;;;;;;4935439;28;20038;-73
2023/12/07 08:48:39;;;;;;;194.35;83.47;;;2.90;99.90;;;;;;4949605;28;20054;-74
2023/12/07 08:51:09;;;;;;;203.07;88.65;;;2.90;99.90;;;;;;4952375;28;20482;-74
2023/12/07 08:53:36;;;;;;;176.60;80.15;;;3.00;99.90;;;;;;4936251;28;20056;-73
2023/12/07 08:56:04;;;;;;;213.13;92.70;;;3.10;99.90;;;;;;4939343;28;20049;-74
2023/12/07 08:58:31;;;;;;;193.70;84.88;;;3.10;99.90;;;;;;4956866;28;20051;-74
2023/12/07 09:00:58;;;;;;;192.38;86.93;;;3.10;99.90;;;;;;4950345;28;20046;-73
2023/12/07 09:03:31;;;;;;;180.02;79.97;;;3.20;99.90;;;;;;4947566;28;20049;-74
2023/12/07 09:06:00;;;;;;;163.25;77.85;;;3.20;99.90;;;;;;4957612;28;20548;-75
2023/12/07 09:08:26;;;;;;;153.52;79.60;;;3.30;99.90;;;;;;4958256;28;20069;-75
2023/12/07 09:10:53;;;;;;;148.07;77.13;;;3.30;99.90;;;;;;4961608;28;20039;-75
2023/12/07 09:13:20;;;;;;;134.93;75.68;;;3.30;99.90;;;;;;4975905;28;20042;-74
2023/12/07 09:15:47;;;;;;;131.85;79.97;;;3.50;99.90;;;;;;4945491;28;20038;-74
2023/12/07 09:18:14;;;;;;;132.18;74.93;;;3.30;99.90;;;;;;4966891;28;20415;-74
2023/12/07 09:20:45;;;;;;;128.52;78.00;;;3.40;99.90;;;;;;4948652;28;20142;-74
2023/12/07 09:23:14;;;;;;;114.05;73.57;;;3.70;99.90;;;;;;4990512;28;20042;-74
2023/12/07 09:25:42;;;;;;;105.90;70.50;;;3.70;99.90;;;;;;4981159;28;20124;-73
2023/12/07 09:28:09;;;;;;;106.10;72.15;;;3.80;99.90;;;;;;4969686;28;20141;-73
2023/12/07 09:30:36;;;;;;;111.53;72.93;;;3.80;99.90;;;;;;4963238;28;20108;-73
2023/12/07 09:33:03;;;;;;;102.32;71.57;;;3.80;99.90;;;;;;4976562;28;20339;-74
2023/12/07 09:35:30;;;;;;;101.10;72.68;;;3.80;99.90;;;;;;4954804;28;20681;-73
2023/12/07 09:37:57;;;;;;;102.95;73.90;;;3.80;99.90;;;;;;4952014;28;20678;-73
2023/12/07 09:40:25;;;;;;;113.03;77.97;;;3.90;99.90;;;;;;4968417;28;20053;-74
2023/12/07 09:42:52;;;;;;;94.30;72.65;;;4.00;99.90;;;;;;4982735;28;20042;-73
2023/12/07 09:45:21;;;;;;;89.80;72.05;;;3.90;99.90;;;;;;4967839;28;20046;-74
2023/12/07 09:47:50;;;;;;;92.93;76.32;;;3.80;99.90;;;;;;4962157;28;20042;-73
2023/12/07 09:50:21;;;;;;;104.63;87.07;;;4.00;99.90;;;;;;4954229;28;20042;-72
2023/12/07 09:52:50;;;;;;;78.95;70.60;;;4.00;99.90;;;;;;4949190;28;20053;-74
2023/12/07 09:55:30;;;;;;;84.47;72.38;;;4.10;99.90;;;;;;4975831;28;20065;-74
2023/12/07 09:57:58;;;;;;;84.40;74.97;;;4.10;99.90;;;;;;4968691;28;21043;-74
2023/12/07 10:00:26;;;;;;;84.30;75.40;;;4.10;99.90;;;;;;4956236;28;20053;-73
2023/12/07 10:02:53;;;;;;;87.80;78.65;;;4.20;99.90;;;;;;4949767;28;20121;-74
2023/12/07 10:05:21;;;;;;;98.53;89.63;;;4.10;99.90;;;;;;4977665;28;20042;-73
2023/12/07 10:07:50;;;;;;;84.40;75.63;;;4.20;99.90;;;;;;4948630;28;20070;-74
2023/12/07 10:10:18;;;;;;;79.40;71.38;;;4.30;99.90;;;;;;4956409;28;20129;-75
2023/12/07 10:12:53;;;;;;;81.72;73.72;;;4.20;99.90;;;;;;4953261;28;20060;-73
2023/12/07 10:15:22;;;;;;;78.35;70.50;;;4.20;99.90;;;;;;4957429;28;20089;-77
2023/12/07 10:17:59;;;;;;;69.28;57.63;;;4.30;99.90;;;;;;4957749;28;20055;-76
2023/12/07 10:20:28;;;;;;;64.53;58.30;;;4.40;99.90;;;;;;4956225;28;20821;-73
2023/12/07 10:23:05;;;;;;;67.43;60.47;;;4.70;99.90;;;;;;4949929;28;20124;-74
2023/12/07 10:25:33;;;;;;;72.72;66.25;;;5.10;99.90;;;;;;4956135;28;20057;-74
2023/12/07 10:28:01;;;;;;;73.45;67.28;;;5.40;99.90;;;;;;4965428;28;20050;-75
2023/12/07 10:30:28;;;;;;;78.57;72.30;;;5.50;99.90;;;;;;4953096;28;21686;-74
2023/12/07 10:32:57;;;;;;;74.93;69.03;;;5.50;99.90;;;;;;4945009;28;20461;-74
2023/12/07 10:35:25;;;;;;;76.00;70.40;;;5.50;99.90;;;;;;4946470;28;20527;-76
2023/12/07 10:37:52;;;;;;;76.72;70.68;;;5.50;99.90;;;;;;4943241;28;20049;-75
2023/12/07 10:40:20;;;;;;;77.55;71.70;;;5.50;99.90;;;;;;4951662;28;20572;-75
2023/12/07 10:43:15;;;;;;;82.65;76.75;;;5.70;99.90;;;;;;4940360;28;20743;-74
2023/12/07 10:45:43;;;;;;;73.80;68.00;;;5.80;99.90;;;;;;4925955;28;20661;-77
2023/12/07 10:48:18;;;;;;;77.88;71.80;;;5.70;99.90;;;;;;4948805;28;20062;-74
2023/12/07 10:50:49;;;;;;;73.38;67.53;;;5.80;99.90;;;;;;4941251;28;20116;-74
2023/12/07 10:53:33;;;;;;;63.30;57.72;;;5.70;99.90;;;;;;4951487;28;20101;-76
2023/12/07 10:56:01;;;;;;;73.03;67.03;;;5.60;99.90;;;;;;4932210;28;20137;-73
2023/12/07 10:58:28;;;;;;;78.03;71.95;;;5.60;99.90;;;;;;4964397;28;20134;-73
2023/12/07 11:01:09;;;;;;;80.68;73.50;;;5.50;99.90;;;;;;4950492;28;20039;-75
2023/12/07 11:03:40;;;;;;;89.28;80.85;;;5.50;99.90;;;;;;4952933;28;20050;-75
2023/12/07 11:06:08;;;;;;;75.57;69.05;;;5.50;99.90;;;;;;4943401;28;20074;-77
2023/12/07 11:09:03;;;;;;;76.30;70.10;;;5.50;99.90;;;;;;4950989;28;20129;-76
2023/12/07 11:11:48;;;;;;;78.30;71.45;;;5.50;99.90;;;;;;4934943;28;20047;-74
2023/12/07 11:14:20;;;;;;;75.78;69.85;;;5.40;99.90;;;;;;4954881;28;20050;-75
2023/12/07 11:16:47;;;;;;;67.18;61.97;;;5.20;99.90;;;;;;4953786;28;20044;-76
2023/12/07 11:19:33;;;;;;;64.78;59.28;;;5.40;99.90;;;;;;4954142;28;20070;-75
2023/12/07 11:22:08;;;;;;;65.78;60.08;;;5.40;99.90;;;;;;4968201;28;20090;-75
2023/12/07 11:24:35;;;;;;;67.47;62.00;;;5.20;99.90;;;;;;4947798;28;20050;-76
2023/12/07 11:27:03;;;;;;;63.97;59.03;;;5.10;99.90;;;;;;4931779;28;20169;-77
2023/12/07 11:29:31;;;;;;;60.13;54.92;;;5.10;99.90;;;;;;4964893;28;20055;-76
2023/12/07 11:32:21;;;;;;;53.83;49.20;;;5.10;99.90;;;;;;4942413;28;20054;-76
2023/12/07 11:35:03;;;;;;;59.15;54.63;;;5.10;99.90;;;;;;4932718;28;20038;-75
2023/12/07 11:38:01;;;;;;;61.83;57.08;;;5.20;99.90;;;;;;4953140;28;20396;-77
2023/12/07 11:40:30;;;;;;;69.80;64.80;;;5.20;99.90;;;;;;4954211;28;20050;-77
2023/12/07 11:42:59;;;;;;;64.53;59.78;;;5.20;99.90;;;;;;4937625;28;20096;-76
2023/12/07 11:45:47;;;;;;;63.28;58.65;;;5.10;99.90;;;;;;4964230;28;20062;-76
2023/12/07 11:48:17;;;;;;;59.88;56.00;;;5.10;99.90;;;;;;4946693;28;20050;-77
2023/12/07 11:51:00;;;;;;;62.85;58.85;;;5.30;99.90;;;;;;4938993;28;20050;-76
2023/12/07 11:53:32;;;;;;;60.53;56.10;;;5.40;99.90;;;;;;4947973;28;20051;-77
2023/12/07 11:56:21;;;;;;;63.50;59.25;;;5.40;99.90;;;;;;4962671;28;20042;-78
2023/12/07 11:58:52;;;;;;;59.05;55.33;;;5.50;99.90;;;;;;4954384;28;20051;-76
2023/12/07 12:01:27;;;;;;;62.10;57.87;;;5.60;99.90;;;;;;4951022;28;20035;-75
2023/12/07 12:04:21;;;;;;;62.70;58.58;;;5.60;99.90;;;;;;4946634;28;20429;-76
2023/12/07 12:06:48;;;;;;;61.35;56.92;;;5.70;99.90;;;;;;4946175;28;20050;-76
2023/12/07 12:09:37;;;;;;;56.70;52.45;;;5.70;99.90;;;;;;4934049;28;20636;-75
2023/12/07 12:12:04;;;;;;;55.78;51.60;;;5.70;99.90;;;;;;4968330;28;20093;-76
2023/12/07 12:14:31;;;;;;;47.67;43.95;;;5.60;99.90;;;;;;4952361;28;20042;-77
2023/12/07 12:16:59;;;;;;;61.58;56.72;;;5.70;99.90;;;;;;4968525;28;20047;-77
2023/12/07 12:19:27;;;;;;;47.45;44.03;;;5.70;99.90;;;;;;4953698;28;20070;-76
2023/12/07 12:22:27;;;;;;;51.93;48.10;;;5.80;99.90;;;;;;4950089;28;20569;-75
2023/12/07 12:25:08;;;;;;;56.08;52.45;;;5.60;99.90;;;;;;4974375;28;20309;-76
2023/12/07 12:27:36;;;;;;;54.60;51.15;;;5.40;99.90;;;;;;4954328;28;20058;-75
2023/12/07 12:30:10;;;;;;;54.85;50.88;;;5.40;99.90;;;;;;4932964;28;20061;-77
2023/12/07 12:32:45;;;;;;;55.17;51.67;;;5.30;99.90;;;;;;4953717;28;20058;-76
2023/12/07 12:35:35;;;;;;;60.97;55.83;;;5.30;99.90;;;;;;4944280;28;20124;-77
2023/12/07 12:38:10;;;;;;;56.53;52.88;;;5.30;99.90;;;;;;4946910;28;20627;-77
2023/12/07 12:40:45;;;;;;;51.15;47.35;;;5.20;99.90;;;;;;4972147;28;20896;-77